sensor_id;sensor_type;location;lat;lon;timestamp;pressure;altitude;pressure_sealevel;temperature;humidity
10392;BME280;5242;49.244;6.774;2023-09-08T00:01:34;99674.78;;;16.52;100.00
10392;BME280;5242;49.244;6.774;2023-09-08T00:09:26;99675.97;;;16.48;100.00
10392;BME280;5242;49.244;6.774;2023-09-08T00:17:18;99670.06;;;16.39;100.00
10392;BME280;5242;49.244;6.774;2023-09-08T00:25:10;99680.63;;;16.29;99.90
10392;BME280;5242;49.244;6.774;2023-09-08T00:33:02;99678.63;;;16.19;100.00
10392;BME280;5242;49.244;6.774;2023-09-08T00:40:54;99679.00;;;16.11;100.00
10392;BME280;5242;49.244;6.774;2023-09-08T00:48:46;99682.88;;;16.02;100.00
10392;BME280;5242;49.244;6.774;2023-09-08T00:56:38;99679.72;;;15.97;100.00
10392;BME280;5242;49.244;6.774;2023-09-08T01:04:30;99677.34;;;15.92;100.00
10392;BME280;5242;49.244;6.774;2023-09-08T01:12:25;99689.91;;;15.85;100.00
10392;BME280;5242;49.244;6.774;2023-09-08T01:20:19;99697.69;;;15.76;100.00
10392;BME280;5242;49.244;6.774;2023-09-08T01:28:13;99697.63;;;15.69;100.00
10392;BME280;5242;49.244;6.774;2023-09-08T01:36:07;99696.78;;;15.61;100.00
10392;BME280;5242;49.244;6.774;2023-09-08T01:44:00;99695.94;;;15.50;100.00
10392;BME280;5242;49.244;6.774;2023-09-08T01:51:56;99690.81;;;15.49;100.00
10392;BME280;5242;49.244;6.774;2023-09-08T01:59:48;99684.91;;;15.39;100.00
10392;BME280;5242;49.244;6.774;2023-09-08T02:07:40;99673.81;;;15.29;100.00
10392;BME280;5242;49.244;6.774;2023-09-08T02:15:35;99670.66;;;15.23;100.00
10392;BME280;5242;49.244;6.774;2023-09-08T02:23:27;99676.50;;;15.18;100.00
10392;BME280;5242;49.244;6.774;2023-09-08T02:31:19;99675.59;;;14.99;100.00
10392;BME280;5242;49.244;6.774;2023-09-08T02:39:10;99680.59;;;14.90;100.00
10392;BME280;5242;49.244;6.774;2023-09-08T02:47:03;99683.28;;;14.83;100.00
10392;BME280;5242;49.244;6.774;2023-09-08T02:54:55;99683.28;;;14.83;100.00
10392;BME280;5242;49.244;6.774;2023-09-08T03:02:46;99685.22;;;14.79;100.00
10392;BME280;5242;49.244;6.774;2023-09-08T03:10:40;99690.63;;;14.72;100.00
10392;BME280;5242;49.244;6.774;2023-09-08T03:18:36;99697.19;;;14.64;100.00
10392;BME280;5242;49.244;6.774;2023-09-08T03:26:28;99687.75;;;14.57;100.00
10392;BME280;5242;49.244;6.774;2023-09-08T03:34:20;99684.91;;;14.50;100.00
10392;BME280;5242;49.244;6.774;2023-09-08T03:42:13;99686.06;;;14.49;100.00
10392;BME280;5242;49.244;6.774;2023-09-08T03:50:05;99685.66;;;14.47;100.00
10392;BME280;5242;49.244;6.774;2023-09-08T03:57:58;99683.63;;;14.41;100.00
10392;BME280;5242;49.244;6.774;2023-09-08T04:05:50;99684.34;;;14.34;100.00
10392;BME280;5242;49.244;6.774;2023-09-08T04:13:42;99686.25;;;14.30;100.00
10392;BME280;5242;49.244;6.774;2023-09-08T04:21:33;99686.59;;;14.25;100.00
10392;BME280;5242;49.244;6.774;2023-09-08T04:29:25;99690.88;;;14.22;100.00
10392;BME280;5242;49.244;6.774;2023-09-08T04:37:17;99686.94;;;14.20;100.00
10392;BME280;5242;49.244;6.774;2023-09-08T04:45:09;99692.78;;;14.18;100.00
10392;BME280;5242;49.244;6.774;2023-09-08T04:53:02;99704.06;;;14.13;100.00
10392;BME280;5242;49.244;6.774;2023-09-08T05:00:54;99711.50;;;14.12;100.00
10392;BME280;5242;49.244;6.774;2023-09-08T05:08:47;99722.03;;;14.10;100.00
10392;BME280;5242;49.244;6.774;2023-09-08T05:16:39;99722.03;;;14.10;100.00
10392;BME280;5242;49.244;6.774;2023-09-08T05:24:38;99725.28;;;14.20;100.00
10392;BME280;5242;49.244;6.774;2023-09-08T05:32:29;99733.25;;;14.32;100.00
10392;BME280;5242;49.244;6.774;2023-09-08T05:40:22;99732.53;;;14.39;100.00
10392;BME280;5242;49.244;6.774;2023-09-08T05:48:16;99735.38;;;14.49;100.00
10392;BME280;5242;49.244;6.774;2023-09-08T05:56:08;99738.47;;;14.78;100.00
10392;BME280;5242;49.244;6.774;2023-09-08T06:04:00;99745.78;;;15.08;100.00
10392;BME280;5242;49.244;6.774;2023-09-08T06:11:52;99751.56;;;15.43;100.00
10392;BME280;5242;49.244;6.774;2023-09-08T06:19:44;99746.44;;;15.97;100.00
10392;BME280;5242;49.244;6.774;2023-09-08T06:27:36;99749.84;;;16.57;100.00
10392;BME280;5242;49.244;6.774;2023-09-08T06:35:29;99753.09;;;17.05;100.00
10392;BME280;5242;49.244;6.774;2023-09-08T06:43:21;99749.91;;;17.68;100.00
10392;BME280;5242;49.244;6.774;2023-09-08T06:51:13;99737.44;;;18.51;98.75
10392;BME280;5242;49.244;6.774;2023-09-08T06:59:05;99739.38;;;19.17;95.27
10392;BME280;5242;49.244;6.774;2023-09-08T07:06:57;99730.97;;;20.11;91.09
10392;BME280;5242;49.244;6.774;2023-09-08T07:14:49;99747.50;;;21.06;86.69
10392;BME280;5242;49.244;6.774;2023-09-08T07:22:41;99745.38;;;22.05;84.44
10392;BME280;5242;49.244;6.774;2023-09-08T07:30:33;99726.03;;;22.94;80.25
10392;BME280;5242;49.244;6.774;2023-09-08T07:38:25;99731.00;;;24.23;76.65
10392;BME280;5242;49.244;6.774;2023-09-08T07:46:17;99737.31;;;25.04;70.30
10392;BME280;5242;49.244;6.774;2023-09-08T07:54:09;99734.94;;;25.75;68.95
10392;BME280;5242;49.244;6.774;2023-09-08T08:02:01;99721.81;;;27.69;55.49
10392;BME280;5242;49.244;6.774;2023-09-08T08:09:53;99721.66;;;28.61;49.98
10392;BME280;5242;49.244;6.774;2023-09-08T08:17:46;99714.75;;;30.51;46.10
10392;BME280;5242;49.244;6.774;2023-09-08T08:25:37;99717.72;;;31.53;41.27
10392;BME280;5242;49.244;6.774;2023-09-08T08:33:29;99712.19;;;32.75;40.98
10392;BME280;5242;49.244;6.774;2023-09-08T08:41:22;99719.97;;;34.50;36.58
10392;BME280;5242;49.244;6.774;2023-09-08T08:49:15;99715.47;;;35.22;38.50
10392;BME280;5242;49.244;6.774;2023-09-08T08:57:08;99706.66;;;35.84;36.32
10392;BME280;5242;49.244;6.774;2023-09-08T09:05:00;99705.72;;;36.42;31.83
10392;BME280;5242;49.244;6.774;2023-09-08T09:12:52;99706.31;;;36.35;32.48
10392;BME280;5242;49.244;6.774;2023-09-08T09:20:54;99709.06;;;36.46;31.99
10392;BME280;5242;49.244;6.774;2023-09-08T09:28:47;99693.38;;;36.94;32.57
10392;BME280;5242;49.244;6.774;2023-09-08T09:36:42;99700.25;;;36.99;31.04
10392;BME280;5242;49.244;6.774;2023-09-08T09:44:34;99690.91;;;37.10;30.41
10392;BME280;5242;49.244;6.774;2023-09-08T09:52:26;99686.50;;;37.71;31.17
10392;BME280;5242;49.244;6.774;2023-09-08T10:00:18;99686.91;;;37.37;30.32
10392;BME280;5242;49.244;6.774;2023-09-08T10:08:12;99686.31;;;37.45;31.04
10392;BME280;5242;49.244;6.774;2023-09-08T10:16:05;99683.47;;;37.82;29.59
10392;BME280;5242;49.244;6.774;2023-09-08T10:24:04;99674.47;;;37.78;29.90
10392;BME280;5242;49.244;6.774;2023-09-08T10:32:00;99663.44;;;37.37;30.42
10392;BME280;5242;49.244;6.774;2023-09-08T10:39:53;99658.75;;;37.77;29.87
10392;BME280;5242;49.244;6.774;2023-09-08T11:03:50;99650.53;;;38.65;28.82
10392;BME280;5242;49.244;6.774;2023-09-08T11:11:43;99653.28;;;38.70;28.71
10392;BME280;5242;49.244;6.774;2023-09-08T11:19:49;99637.25;;;39.34;28.64
10392;BME280;5242;49.244;6.774;2023-09-08T11:27:41;99636.97;;;40.00;28.74
10392;BME280;5242;49.244;6.774;2023-09-08T11:35:35;99634.09;;;40.42;28.42
10392;BME280;5242;49.244;6.774;2023-09-08T11:43:26;99627.34;;;40.90;28.24
10392;BME280;5242;49.244;6.774;2023-09-08T11:51:23;99618.53;;;40.80;28.47
10392;BME280;5242;49.244;6.774;2023-09-08T11:59:15;99623.34;;;40.56;28.71
10392;BME280;5242;49.244;6.774;2023-09-08T12:07:12;99610.75;;;41.17;27.01
10392;BME280;5242;49.244;6.774;2023-09-08T12:15:07;99618.09;;;41.71;26.01
10392;BME280;5242;49.244;6.774;2023-09-08T12:23:01;99609.72;;;41.66;26.73
10392;BME280;5242;49.244;6.774;2023-09-08T12:30:54;99608.19;;;41.65;26.92
10392;BME280;5242;49.244;6.774;2023-09-08T12:38:51;99597.34;;;41.79;25.50
10392;BME280;5242;49.244;6.774;2023-09-08T12:46:43;99588.97;;;41.73;25.51
10392;BME280;5242;49.244;6.774;2023-09-08T12:54:35;99584.03;;;42.91;24.29
10392;BME280;5242;49.244;6.774;2023-09-08T13:02:27;99585.34;;;42.90;23.74
10392;BME280;5242;49.244;6.774;2023-09-08T13:10:19;99572.22;;;42.71;23.71
10392;BME280;5242;49.244;6.774;2023-09-08T13:18:11;99563.16;;;43.06;23.22
10392;BME280;5242;49.244;6.774;2023-09-08T13:26:03;99564.78;;;42.84;22.54
10392;BME280;5242;49.244;6.774;2023-09-08T13:33:55;99549.75;;;42.68;22.87
10392;BME280;5242;49.244;6.774;2023-09-08T13:41:51;99536.56;;;41.94;23.50
10392;BME280;5242;49.244;6.774;2023-09-08T13:49:44;99531.91;;;42.29;23.04
10392;BME280;5242;49.244;6.774;2023-09-08T13:57:38;99522.06;;;41.84;23.27
10392;BME280;5242;49.244;6.774;2023-09-08T14:05:32;99519.53;;;40.02;24.30
10392;BME280;5242;49.244;6.774;2023-09-08T14:13:28;99524.34;;;37.82;26.58
10392;BME280;5242;49.244;6.774;2023-09-08T14:21:20;99522.81;;;36.11;27.87
10392;BME280;5242;49.244;6.774;2023-09-08T14:29:12;99521.91;;;34.20;30.75
10392;BME280;5242;49.244;6.774;2023-09-08T14:37:04;99519.09;;;33.35;31.85
10392;BME280;5242;49.244;6.774;2023-09-08T14:44:59;99511.63;;;33.16;31.74
10392;BME280;5242;49.244;6.774;2023-09-08T14:52:51;99512.56;;;32.90;32.43
10392;BME280;5242;49.244;6.774;2023-09-08T15:00:44;99512.59;;;32.30;33.34
10392;BME280;5242;49.244;6.774;2023-09-08T15:08:37;99517.59;;;32.09;33.71
10392;BME280;5242;49.244;6.774;2023-09-08T15:16:29;99509.75;;;31.93;33.84
10392;BME280;5242;49.244;6.774;2023-09-08T15:24:21;99505.53;;;31.71;34.01
10392;BME280;5242;49.244;6.774;2023-09-08T15:32:13;99509.53;;;31.59;33.79
10392;BME280;5242;49.244;6.774;2023-09-08T15:40:05;99503.63;;;31.31;35.24
10392;BME280;5242;49.244;6.774;2023-09-08T15:47:57;99502.56;;;30.55;37.27
10392;BME280;5242;49.244;6.774;2023-09-08T15:55:49;99510.22;;;30.20;37.15
10392;BME280;5242;49.244;6.774;2023-09-08T16:03:41;99498.88;;;29.94;37.46
10392;BME280;5242;49.244;6.774;2023-09-08T16:11:33;99500.28;;;29.68;38.35
10392;BME280;5242;49.244;6.774;2023-09-08T16:19:25;99508.47;;;29.42;39.29
10392;BME280;5242;49.244;6.774;2023-09-08T16:27:17;99500.19;;;29.33;39.70
10392;BME280;5242;49.244;6.774;2023-09-08T16:35:09;99501.22;;;29.06;41.35
10392;BME280;5242;49.244;6.774;2023-09-08T16:43:01;99499.22;;;28.82;41.01
10392;BME280;5242;49.244;6.774;2023-09-08T16:50:55;99508.03;;;28.51;42.55
10392;BME280;5242;49.244;6.774;2023-09-08T16:58:47;99500.31;;;28.13;47.20
10392;BME280;5242;49.244;6.774;2023-09-08T17:06:41;99496.09;;;27.84;49.64
10392;BME280;5242;49.244;6.774;2023-09-08T17:14:34;99498.66;;;27.64;50.45
10392;BME280;5242;49.244;6.774;2023-09-08T17:22:26;99500.25;;;27.46;51.05
10392;BME280;5242;49.244;6.774;2023-09-08T17:30:18;99492.38;;;27.08;52.61
10392;BME280;5242;49.244;6.774;2023-09-08T17:38:10;99499.06;;;26.64;54.28
10392;BME280;5242;49.244;6.774;2023-09-08T17:46:02;99502.66;;;26.15;58.65
10392;BME280;5242;49.244;6.774;2023-09-08T17:53:56;99505.44;;;25.44;60.95
10392;BME280;5242;49.244;6.774;2023-09-08T18:01:48;99512.06;;;24.93;63.09
10392;BME280;5242;49.244;6.774;2023-09-08T18:09:40;99522.66;;;24.50;64.73
10392;BME280;5242;49.244;6.774;2023-09-08T18:17:31;99526.69;;;23.98;68.39
10392;BME280;5242;49.244;6.774;2023-09-08T18:25:23;99531.28;;;23.50;67.64
10392;BME280;5242;49.244;6.774;2023-09-08T18:33:15;99544.34;;;23.24;73.13
10392;BME280;5242;49.244;6.774;2023-09-08T18:41:07;99545.03;;;22.99;73.20
10392;BME280;5242;49.244;6.774;2023-09-08T18:49:00;99542.91;;;22.57;76.13
10392;BME280;5242;49.244;6.774;2023-09-08T18:56:52;99542.47;;;22.26;79.69
10392;BME280;5242;49.244;6.774;2023-09-08T19:04:43;99553.53;;;22.10;75.76
10392;BME280;5242;49.244;6.774;2023-09-08T19:12:35;99564.16;;;21.95;79.65
10392;BME280;5242;49.244;6.774;2023-09-08T19:20:27;99565.66;;;21.80;77.36
10392;BME280;5242;49.244;6.774;2023-09-08T19:28:20;99566.63;;;21.53;79.86
10392;BME280;5242;49.244;6.774;2023-09-08T19:36:11;99571.91;;;21.24;79.43
10392;BME280;5242;49.244;6.774;2023-09-08T19:44:03;99574.31;;;21.02;81.14
10392;BME280;5242;49.244;6.774;2023-09-08T19:51:56;99587.16;;;20.69;82.66
10392;BME280;5242;49.244;6.774;2023-09-08T19:59:47;99586.75;;;20.43;84.99
10392;BME280;5242;49.244;6.774;2023-09-08T20:07:39;99590.47;;;20.33;85.47
10392;BME280;5242;49.244;6.774;2023-09-08T20:15:31;99585.28;;;20.08;84.73
10392;BME280;5242;49.244;6.774;2023-09-08T20:23:24;99598.59;;;19.89;85.89
10392;BME280;5242;49.244;6.774;2023-09-08T20:31:16;99599.22;;;19.70;87.88
10392;BME280;5242;49.244;6.774;2023-09-08T20:39:08;99594.97;;;19.58;89.71
10392;BME280;5242;49.244;6.774;2023-09-08T20:47:00;99595.88;;;19.48;86.88
10392;BME280;5242;49.244;6.774;2023-09-08T20:54:52;99594.66;;;19.18;88.73
10392;BME280;5242;49.244;6.774;2023-09-08T21:02:45;99592.47;;;18.99;95.28
10392;BME280;5242;49.244;6.774;2023-09-08T21:10:37;99598.13;;;18.84;91.77
10392;BME280;5242;49.244;6.774;2023-09-08T21:18:29;99612.78;;;18.78;99.08
10392;BME280;5242;49.244;6.774;2023-09-08T21:26:21;99602.91;;;18.73;92.77
10392;BME280;5242;49.244;6.774;2023-09-08T21:34:16;99595.00;;;18.79;91.78
10392;BME280;5242;49.244;6.774;2023-09-08T21:42:09;99596.28;;;18.67;90.03
10392;BME280;5242;49.244;6.774;2023-09-08T21:50:01;99593.66;;;18.45;98.15
10392;BME280;5242;49.244;6.774;2023-09-08T21:57:52;99593.00;;;18.31;98.99
10392;BME280;5242;49.244;6.774;2023-09-08T22:05:44;99589.94;;;18.18;93.48
10392;BME280;5242;49.244;6.774;2023-09-08T22:13:37;99596.66;;;18.13;95.14
10392;BME280;5242;49.244;6.774;2023-09-08T22:21:28;99593.56;;;18.04;93.73
10392;BME280;5242;49.244;6.774;2023-09-08T22:29:22;99596.75;;;17.95;94.34
10392;BME280;5242;49.244;6.774;2023-09-08T22:37:14;99584.63;;;17.82;94.82
10392;BME280;5242;49.244;6.774;2023-09-08T22:45:07;99596.81;;;17.74;100.00
10392;BME280;5242;49.244;6.774;2023-09-08T22:52:59;99602.41;;;17.59;99.35
10392;BME280;5242;49.244;6.774;2023-09-08T23:00:51;99587.84;;;17.55;100.00
10392;BME280;5242;49.244;6.774;2023-09-08T23:08:43;99587.13;;;17.44;98.63
10392;BME280;5242;49.244;6.774;2023-09-08T23:16:35;99588.75;;;17.31;98.21
10392;BME280;5242;49.244;6.774;2023-09-08T23:24:27;99598.16;;;17.23;100.00
10392;BME280;5242;49.244;6.774;2023-09-08T23:32:19;99587.19;;;17.12;100.00
10392;BME280;5242;49.244;6.774;2023-09-08T23:40:11;99588.00;;;17.05;98.92
10392;BME280;5242;49.244;6.774;2023-09-08T23:48:05;99588.00;;;16.94;100.00
10392;BME280;5242;49.244;6.774;2023-09-08T23:56:00;99578.97;;;16.87;100.00
